Time,TemperatureF,DewpointF,PressureIn,WindDirection,WindDirectionDegrees,WindSpeedMPH,WindSpeedGustMPH,Humidity,HourlyPrecipIn,Conditions,Clouds,dailyrainin,SoftwareType,DateUTC
2013-01-31 00:03:00,28.8,15.4,29.80,ESE,112,1.8,1.8,57,0.00,CLR,,0.00,WeatherDisplay:10.37,2013-01-31 07:03:00,
2013-01-31 00:08:00,28.8,15.4,29.81,East,90,0.0,0.0,57,0.00,CLR,,0.00,WeatherDisplay:10.37,2013-01-31 07:08:00,
2013-01-31 00:13:00,28.6,15.3,29.81,ESE,112,1.2,0.0,57,0.00,CLR,,0.00,WeatherDisplay:10.37,2013-01-31 07:13:00,
2013-01-31 00:18:00,28.4,15.1,29.81,South,180,1.2,1.2,57,0.00,CLR,,0.00,WeatherDisplay:10.37,2013-01-31 07:18:00,
2013-01-31 00:23:00,28.2,15.3,29.80,SSE,158,0.0,0.0,58,0.00,CLR,,0.00,WeatherDisplay:10.37,2013-01-31 07:23:00,
2013-01-31 00:28:00,28.2,15.3,29.80,East,90,1.2,1.2,58,0.00,CLR,,0.00,WeatherDisplay:10.37,2013-01-31 07:28:00,
2013-01-31 00:33:00,28.0,15.2,29.80,ESE,112,0.0,0.0,58,0.00,CLR,,0.00,WeatherDisplay:10.37,2013-01-31 07:33:00,
2013-01-31 00:38:00,27.9,15.0,29.80,East,90,2.3,2.3,58,0.00,CLR,,0.00,WeatherDisplay:10.37,2013-01-31 07:38:00,
2013-01-31 00:43:00,27.9,15.4,29.80,East,90,0.2,0.2,59,0.00,CLR,,0.00,WeatherDisplay:10.37,2013-01-31 07:43:00,
2013-01-31 00:48:00,27.7,15.2,29.80,North,0,0.5,0.5,59,0.00,CLR,,0.00,WeatherDisplay:10.37,2013-01-31 07:48:00,
2013-01-31 00:53:00,27.7,15.6,29.80,NNE,22,0.0,0.0,60,0.00,CLR,,0.00,WeatherDisplay:10.37,2013-01-31 07:53:00,
2013-01-31 00:58:00,27.7,15.6,29.80,ENE,68,0.0,0.0,60,0.00,CLR,,0.00,WeatherDisplay:10.37,2013-01-31 07:58:00,
2013-01-31 01:03:00,27.3,15.2,29.80,ENE,68,0.0,0.0,60,0.00,CLR,,0.00,WeatherDisplay:10.37,2013-01-31 08:03:00,
2013-01-31 01:08:00,27.1,15.1,29.80,ENE,68,0.9,0.9,60,0.00,CLR,,0.00,WeatherDisplay:10.37,2013-01-31 08:08:00,
2013-01-31 01:13:00,27.0,15.3,29.80,NNW,338,0.0,0.0,61,0.00,CLR,,0.00,WeatherDisplay:10.37,2013-01-31 08:13:00,
2013-01-31 01:18:00,27.0,15.7,29.80,West,270,1.2,1.2,62,0.00,CLR,,0.00,WeatherDisplay:10.37,2013-01-31 08:18:00,
2013-01-31 01:23:00,27.1,15.8,29.80,ENE,68,1.2,0.0,62,0.00,CLR,,0.00,WeatherDisplay:10.37,2013-01-31 08:23:00,
2013-01-31 01:28:00,27.1,15.8,29.80,East,90,2.0,2.0,62,0.00,CLR,,0.00,WeatherDisplay:10.37,2013-01-31 08:28:00,
2013-01-31 01:33:00,27.1,15.8,29.80,SW,225,1.2,1.2,62,0.00,CLR,,0.00,WeatherDisplay:10.37,2013-01-31 08:33:00,
2013-01-31 01:38:00,27.0,15.7,29.80,North,0,1.2,1.2,62,0.00,CLR,,0.00,WeatherDisplay:10.37,2013-01-31 08:38:00,
2013-01-31 01:43:00,27.0,15.7,29.80,NW,315,0.0,0.0,62,0.00,CLR,,0.00,WeatherDisplay:10.37,2013-01-31 08:43:00,
2013-01-31 01:48:00,26.8,15.5,29.81,ENE,68,0.0,0.0,62,0.00,CLR,,0.00,WeatherDisplay:10.37,2013-01-31 08:48:00,
2013-01-31 01:53:00,26.6,15.3,29.80,ENE,68,0.0,0.0,62,0.00,CLR,,0.00,WeatherDisplay:10.37,2013-01-31 08:53:00,
2013-01-31 01:58:00,26.4,15.2,29.80,ESE,112,1.2,1.2,62,0.00,CLR,,0.00,WeatherDisplay:10.37,2013-01-31 08:58:00,
2013-01-31 02:03:00,26.2,15.0,29.80,WSW,248,0.0,0.0,62,0.00,CLR,,0.00,WeatherDisplay:10.37,2013-01-31 09:03:00,
2013-01-31 02:08:00,26.2,15.0,29.80,ESE,112,0.0,0.0,62,0.00,CLR,,0.00,WeatherDisplay:10.37,2013-01-31 09:08:00,
2013-01-31 02:13:00,26.1,14.4,29.80,ESE,112,0.0,0.0,61,0.00,CLR,,0.00,WeatherDisplay:10.37,2013-01-31 09:13:00,
2013-01-31 02:18:00,25.9,14.6,29.80,WSW,248,0.9,0.9,62,0.00,CLR,,0.00,WeatherDisplay:10.37,2013-01-31 09:18:00,
2013-01-31 02:23:00,25.7,14.5,29.80,SW,225,0.5,0.5,62,0.00,CLR,,0.00,WeatherDisplay:10.37,2013-01-31 09:23:00,
2013-01-31 02:28:00,25.9,15.0,29.80,NNE,22,0.0,0.0,63,0.00,CLR,,0.00,WeatherDisplay:10.37,2013-01-31 09:28:00,
2013-01-31 02:33:00,25.7,14.8,29.80,ENE,68,0.0,0.0,63,0.00,CLR,,0.00,WeatherDisplay:10.37,2013-01-31 09:33:00,
2013-01-31 02:38:00,25.5,14.7,29.80,ENE,68,0.0,0.0,63,0.00,CLR,,0.00,WeatherDisplay:10.37,2013-01-31 09:38:00,
2013-01-31 02:43:00,25.5,14.7,29.81,ENE,68,0.0,0.0,63,0.00,CLR,,0.00,WeatherDisplay:10.37,2013-01-31 09:43:00,
2013-01-31 02:48:00,25.3,14.5,29.81,NE,45,0.0,0.0,63,0.00,CLR,,0.00,WeatherDisplay:10.37,2013-01-31 09:48:00,
2013-01-31 02:53:00,25.2,14.7,29.81,North,0,0.0,0.0,64,0.00,CLR,,0.00,WeatherDisplay:10.37,2013-01-31 09:53:00,
2013-01-31 02:58:00,25.2,14.7,29.81,North,0,0.0,0.0,64,0.00,CLR,,0.00,WeatherDisplay:10.37,2013-01-31 09:58:00,
2013-01-31 03:03:00,25.2,15.0,29.81,NNW,338,0.0,0.0,65,0.00,CLR,,0.00,WeatherDisplay:10.37,2013-01-31 10:03:00,
2013-01-31 03:08:00,25.2,15.0,29.81,ENE,68,0.5,0.5,65,0.00,CLR,,0.00,WeatherDisplay:10.37,2013-01-31 10:08:00,
2013-01-31 03:13:00,25.2,15.4,29.81,NE,45,0.0,0.0,66,0.00,CLR,,0.00,WeatherDisplay:10.37,2013-01-31 10:13:00,
2013-01-31 03:18:00,25.2,15.4,29.81,NE,45,0.0,0.0,66,0.00,CLR,,0.00,WeatherDisplay:10.37,2013-01-31 10:18:00,
2013-01-31 03:23:00,25.0,15.2,29.81,NE,45,0.0,0.0,66,0.00,CLR,,0.00,WeatherDisplay:10.37,2013-01-31 10:23:00,
2013-01-31 03:28:00,25.0,15.2,29.81,NNE,22,0.0,0.0,66,0.00,CLR,,0.00,WeatherDisplay:10.37,2013-01-31 10:28:00,
2013-01-31 03:33:00,24.8,15.4,29.81,NNE,22,0.0,0.0,67,0.00,CLR,,0.00,WeatherDisplay:10.37,2013-01-31 10:33:00,
2013-01-31 03:38:00,24.8,15.4,29.82,NNE,22,0.0,0.0,67,0.00,CLR,,0.00,WeatherDisplay:10.37,2013-01-31 10:38:00,
2013-01-31 03:43:00,24.8,15.4,29.82,NNE,22,0.0,0.0,67,0.00,CLR,,0.00,WeatherDisplay:10.37,2013-01-31 10:43:00,
2013-01-31 03:48:00,24.6,15.6,29.82,NE,45,0.0,0.0,68,0.00,CLR,,0.00,WeatherDisplay:10.37,2013-01-31 10:48:00,
2013-01-31 03:53:00,24.6,15.6,29.82,NE,45,0.0,0.0,68,0.00,CLR,,0.00,WeatherDisplay:10.37,2013-01-31 10:53:00,
2013-01-31 03:58:00,24.6,15.6,29.82,NE,45,0.2,0.2,68,0.00,CLR,,0.00,WeatherDisplay:10.37,2013-01-31 10:58:00,
2013-01-31 04:03:00,24.4,15.7,29.83,NNE,22,0.0,0.0,69,0.00,CLR,,0.00,WeatherDisplay:10.37,2013-01-31 11:03:00,
2013-01-31 04:08:00,24.4,15.4,29.83,NNE,22,0.0,0.0,68,0.00,CLR,,0.00,WeatherDisplay:10.37,2013-01-31 11:08:00,
2013-01-31 04:13:00,24.4,15.7,29.83,NNE,22,0.0,0.5,69,0.00,CLR,,0.00,WeatherDisplay:10.37,2013-01-31 11:13:00,
2013-01-31 04:18:00,24.6,15.9,29.83,North,0,1.2,1.2,69,0.00,CLR,,0.00,WeatherDisplay:10.37,2013-01-31 11:18:00,
2013-01-31 04:23:00,24.6,15.9,29.83,NNE,22,1.2,0.0,69,0.00,CLR,,0.00,WeatherDisplay:10.37,2013-01-31 11:23:00,
2013-01-31 04:28:00,24.8,16.1,29.83,NNE,22,0.7,0.7,69,0.00,CLR,,0.00,WeatherDisplay:10.37,2013-01-31 11:28:00,
2013-01-31 04:33:00,24.8,16.1,29.83,North,0,0.5,0.5,69,0.00,CLR,,0.00,WeatherDisplay:10.37,2013-01-31 11:33:00,
2013-01-31 04:38:00,24.8,16.7,29.83,NNE,22,0.0,0.0,71,0.00,CLR,,0.00,WeatherDisplay:10.37,2013-01-31 11:38:00,
2013-01-31 04:43:00,25.0,16.9,29.84,North,0,1.2,1.2,71,0.00,CLR,,0.00,WeatherDisplay:10.37,2013-01-31 11:43:00,
2013-01-31 04:48:00,25.2,17.1,29.84,North,0,1.2,1.2,71,0.00,CLR,,0.00,WeatherDisplay:10.37,2013-01-31 11:48:00,
2013-01-31 04:53:00,25.5,17.7,29.84,North,0,1.2,1.2,72,0.00,CLR,,0.00,WeatherDisplay:10.37,2013-01-31 11:53:00,
2013-01-31 04:58:00,25.5,17.7,29.84,North,0,1.2,1.2,72,0.00,CLR,,0.00,WeatherDisplay:10.37,2013-01-31 11:58:00,
2013-01-31 05:03:00,25.5,17.7,29.84,NNW,338,0.0,0.7,72,0.00,CLR,,0.00,WeatherDisplay:10.37,2013-01-31 12:03:00,
2013-01-31 05:08:00,25.7,17.9,29.84,NW,315,1.2,1.2,72,0.00,CLR,,0.00,WeatherDisplay:10.37,2013-01-31 12:08:00,
2013-01-31 05:13:00,25.7,17.9,29.84,NNW,338,1.2,0.0,72,0.00,CLR,,0.00,WeatherDisplay:10.37,2013-01-31 12:13:00,
2013-01-31 05:18:00,25.5,17.4,29.84,NNW,338,0.7,0.7,71,0.00,CLR,,0.00,WeatherDisplay:10.37,2013-01-31 12:18:00,
2013-01-31 05:23:00,25.5,17.4,29.84,NNW,338,1.2,1.2,71,0.00,CLR,,0.00,WeatherDisplay:10.37,2013-01-31 12:23:00,
2013-01-31 05:28:00,25.5,17.7,29.84,NNW,338,0.0,0.2,72,0.00,CLR,,0.00,WeatherDisplay:10.37,2013-01-31 12:28:00,
2013-01-31 05:33:00,25.5,17.7,29.84,North,0,0.2,0.2,72,0.00,CLR,,0.00,WeatherDisplay:10.37,2013-01-31 12:33:00,
2013-01-31 05:38:00,25.5,17.7,29.84,NNW,338,0.0,0.0,72,0.00,CLR,,0.00,WeatherDisplay:10.37,2013-01-31 12:38:00,
2013-01-31 05:43:00,25.3,17.6,29.83,NW,315,0.0,0.0,72,0.00,CLR,,0.00,WeatherDisplay:10.37,2013-01-31 12:43:00,
2013-01-31 05:48:00,25.3,17.6,29.83,NW,315,1.2,0.0,72,0.00,CLR,,0.00,WeatherDisplay:10.37,2013-01-31 12:48:00,
2013-01-31 05:53:00,25.3,17.6,29.83,NW,315,0.0,0.0,72,0.00,CLR,,0.00,WeatherDisplay:10.37,2013-01-31 12:53:00,
2013-01-31 05:58:00,25.2,17.4,29.83,NNW,338,0.0,0.0,72,0.00,CLR,,0.00,WeatherDisplay:10.37,2013-01-31 12:58:00,
2013-01-31 06:03:00,25.2,17.4,29.83,NNW,338,0.5,0.5,72,0.00,CLR,,0.00,WeatherDisplay:10.37,2013-01-31 13:03:00,
2013-01-31 06:08:00,24.8,17.1,29.83,NW,315,0.0,0.0,72,0.00,CLR,,0.00,WeatherDisplay:10.37,2013-01-31 13:08:00,
2013-01-31 06:13:00,24.8,17.1,29.82,NW,315,0.5,0.5,72,0.00,CLR,,0.00,WeatherDisplay:10.37,2013-01-31 13:13:00,
2013-01-31 06:18:00,24.8,17.1,29.82,NW,315,0.0,0.0,72,0.00,CLR,,0.00,WeatherDisplay:10.37,2013-01-31 13:18:00,
2013-01-31 06:23:00,24.6,16.9,29.82,WNW,292,0.0,0.0,72,0.00,CLR,,0.00,WeatherDisplay:10.37,2013-01-31 13:23:00,
2013-01-31 06:28:00,24.4,16.7,29.82,NW,315,0.0,0.0,72,0.00,CLR,,0.00,WeatherDisplay:10.37,2013-01-31 13:28:00,
2013-01-31 06:33:00,24.3,16.5,29.82,NW,315,0.0,0.0,72,0.00,CLR,,0.00,WeatherDisplay:10.37,2013-01-31 13:33:00,
2013-01-31 06:38:00,24.3,16.5,29.82,NNW,338,0.2,0.2,72,0.00,CLR,,0.00,WeatherDisplay:10.37,2013-01-31 13:38:00,
2013-01-31 06:43:00,24.3,16.5,29.82,NW,315,0.0,0.0,72,0.00,CLR,,0.00,WeatherDisplay:10.37,2013-01-31 13:43:00,
2013-01-31 06:48:00,24.3,16.8,29.82,WNW,292,0.0,0.0,73,0.00,CLR,,0.00,WeatherDisplay:10.37,2013-01-31 13:48:00,
2013-01-31 06:53:00,24.4,17.0,29.83,NNW,338,1.2,0.0,73,0.00,CLR,,0.00,WeatherDisplay:10.37,2013-01-31 13:53:00,
2013-01-31 06:58:00,24.4,17.0,29.83,NE,45,0.5,0.5,73,0.00,CLR,,0.00,WeatherDisplay:10.37,2013-01-31 13:58:00,
2013-01-31 07:03:00,24.6,17.2,29.83,NW,315,0.5,0.5,73,0.00,CLR,,0.00,WeatherDisplay:10.37,2013-01-31 14:03:00,
2013-01-31 07:08:00,24.6,17.2,29.83,NW,315,0.0,0.0,73,0.00,CLR,,0.00,WeatherDisplay:10.37,2013-01-31 14:08:00,
2013-01-31 07:13:00,24.6,17.2,29.85,NNW,338,0.0,0.0,73,0.00,CLR,,0.00,WeatherDisplay:10.37,2013-01-31 14:13:00,
2013-01-31 07:18:00,24.6,17.5,29.86,NNW,338,0.0,0.0,74,0.00,CLR,,0.00,WeatherDisplay:10.37,2013-01-31 14:18:00,
2013-01-31 07:23:00,24.8,17.7,29.87,NNE,22,0.0,0.0,74,0.00,CLR,,0.00,WeatherDisplay:10.37,2013-01-31 14:23:00,
2013-01-31 07:28:00,24.8,17.7,29.87,WNW,292,0.2,0.2,74,0.00,CLR,,0.00,WeatherDisplay:10.37,2013-01-31 14:28:00,
2013-01-31 07:33:00,25.0,18.2,29.87,WSW,248,1.2,1.2,75,0.00,CLR,,0.00,WeatherDisplay:10.37,2013-01-31 14:33:00,
2013-01-31 07:38:00,25.2,18.0,29.88,NNE,22,0.2,0.2,74,0.00,CLR,,0.00,WeatherDisplay:10.37,2013-01-31 14:38:00,
2013-01-31 07:43:00,25.0,17.5,29.87,NNW,338,0.0,0.0,73,0.00,CLR,,0.00,WeatherDisplay:10.37,2013-01-31 14:43:00,
2013-01-31 07:48:00,24.8,17.7,29.87,NNE,22,0.0,0.0,74,0.00,CLR,,0.00,WeatherDisplay:10.37,2013-01-31 14:48:00,
2013-01-31 07:53:00,25.2,18.0,29.87,NE,45,0.9,0.9,74,0.00,CLR,,0.00,WeatherDisplay:10.37,2013-01-31 14:53:00,
2013-01-31 07:58:00,25.5,18.7,29.88,NNW,338,1.2,1.2,75,0.00,CLR,,0.00,WeatherDisplay:10.37,2013-01-31 14:58:00,
2013-01-31 08:03:00,26.6,20.1,29.87,NW,315,1.6,1.6,76,0.00,CLR,,0.00,WeatherDisplay:10.37,2013-01-31 15:03:00,
2013-01-31 08:08:00,27.7,20.8,29.87,NNW,338,1.2,1.2,75,0.00,CLR,,0.00,WeatherDisplay:10.37,2013-01-31 15:08:00,
2013-01-31 08:13:00,28.4,21.8,29.88,North,0,2.4,2.4,76,0.00,CLR,,0.00,WeatherDisplay:10.37,2013-01-31 15:13:00,
2013-01-31 08:18:00,29.3,22.0,29.88,West,270,0.0,0.0,74,0.00,CLR,,0.00,WeatherDisplay:10.37,2013-01-31 15:18:00,
2013-01-31 08:23:00,30.2,22.6,29.88,North,0,2.3,2.3,73,0.00,CLR,,0.00,WeatherDisplay:10.37,2013-01-31 15:23:00,
2013-01-31 08:28:00,30.9,22.6,29.89,NW,315,2.3,2.3,71,0.00,CLR,,0.00,WeatherDisplay:10.37,2013-01-31 15:28:00,
2013-01-31 08:33:00,31.3,22.6,29.89,West,270,1.2,1.2,70,0.00,CLR,,0.00,WeatherDisplay:10.37,2013-01-31 15:33:00,
2013-01-31 08:38:00,31.6,23.0,29.89,WSW,248,0.0,0.5,70,0.00,CLR,,0.00,WeatherDisplay:10.37,2013-01-31 15:38:00,
2013-01-31 08:43:00,32.0,23.3,29.89,SW,225,2.3,2.3,70,0.00,CLR,,0.00,WeatherDisplay:10.37,2013-01-31 15:43:00,
2013-01-31 08:48:00,32.0,23.0,29.90,SW,225,1.4,1.4,69,0.00,CLR,,0.00,WeatherDisplay:10.37,2013-01-31 15:48:00,
2013-01-31 08:53:00,31.8,22.5,29.90,WSW,248,1.4,1.4,68,0.00,CLR,,0.00,WeatherDisplay:10.37,2013-01-31 15:53:00,
2013-01-31 08:58:00,32.0,22.6,29.89,WNW,292,2.3,2.3,68,0.00,CLR,,0.00,WeatherDisplay:10.37,2013-01-31 15:58:00,
2013-01-31 09:03:00,32.4,23.0,29.89,West,270,1.4,1.4,68,0.00,CLR,,0.00,WeatherDisplay:10.37,2013-01-31 16:03:00,
2013-01-31 09:08:00,32.9,23.1,29.89,NNW,338,1.2,1.2,67,0.00,CLR,,0.00,WeatherDisplay:10.37,2013-01-31 16:08:00,
2013-01-31 09:13:00,33.4,23.7,29.90,WSW,248,1.4,1.4,67,0.00,CLR,,0.00,WeatherDisplay:10.37,2013-01-31 16:13:00,
2013-01-31 09:18:00,33.8,23.6,29.89,NW,315,2.3,2.3,66,0.00,CLR,,0.00,WeatherDisplay:10.37,2013-01-31 16:18:00,
2013-01-31 09:23:00,34.2,23.6,29.89,WNW,292,1.8,1.8,65,0.00,CLR,,0.00,WeatherDisplay:10.37,2013-01-31 16:23:00,
2013-01-31 09:28:00,34.5,23.6,29.90,WNW,292,2.3,2.4,64,0.00,CLR,,0.00,WeatherDisplay:10.37,2013-01-31 16:28:00,
2013-01-31 09:33:00,34.9,23.6,29.90,WNW,292,2.3,2.3,63,0.00,CLR,,0.00,WeatherDisplay:10.37,2013-01-31 16:33:00,
2013-01-31 09:38:00,35.2,23.5,29.90,NW,315,3.5,3.5,62,0.00,CLR,,0.00,WeatherDisplay:10.37,2013-01-31 16:38:00,
2013-01-31 09:43:00,36.0,23.8,29.90,NW,315,3.5,3.5,61,0.00,CLR,,0.00,WeatherDisplay:10.37,2013-01-31 16:43:00,
2013-01-31 09:48:00,36.3,23.8,29.90,NNW,338,5.2,5.2,60,0.00,CLR,,0.00,WeatherDisplay:10.37,2013-01-31 16:48:00,
2013-01-31 09:53:00,37.0,24.0,29.90,NNW,338,5.8,5.8,59,0.00,CLR,,0.00,WeatherDisplay:10.37,2013-01-31 16:53:00,
2013-01-31 09:58:00,37.2,24.2,29.89,East,90,4.6,4.6,59,0.00,CLR,,0.00,WeatherDisplay:10.37,2013-01-31 16:58:00,
2013-01-31 10:03:00,37.6,24.1,29.89,NW,315,4.0,4.0,58,0.00,CLR,,0.00,WeatherDisplay:10.37,2013-01-31 17:03:00,
2013-01-31 10:08:00,37.9,24.0,29.89,NW,315,2.6,2.6,57,0.00,CLR,,0.00,WeatherDisplay:10.37,2013-01-31 17:08:00,
2013-01-31 10:13:00,38.5,24.6,29.89,NW,315,2.3,2.3,57,0.00,CLR,,0.00,WeatherDisplay:10.37,2013-01-31 17:13:00,
2013-01-31 10:18:00,38.8,24.5,29.89,North,0,4.6,4.6,56,0.00,CLR,,0.00,WeatherDisplay:10.37,2013-01-31 17:18:00,
2013-01-31 10:23:00,39.0,24.2,29.89,NW,315,3.5,4.0,55,0.00,CLR,,0.00,WeatherDisplay:10.37,2013-01-31 17:23:00,
2013-01-31 10:28:00,39.6,24.3,29.88,NNW,338,5.8,5.8,54,0.00,CLR,,0.00,WeatherDisplay:10.37,2013-01-31 17:28:00,
2013-01-31 10:33:00,39.9,24.2,29.88,NW,315,5.8,5.8,53,0.00,CLR,,0.00,WeatherDisplay:10.37,2013-01-31 17:33:00,
2013-01-31 10:38:00,40.1,24.3,29.88,NW,315,9.9,9.9,53,0.00,CLR,,0.00,WeatherDisplay:10.37,2013-01-31 17:38:00,
2013-01-31 10:43:00,40.3,24.0,29.88,NW,315,4.6,6.9,52,0.00,CLR,,0.00,WeatherDisplay:10.37,2013-01-31 17:43:00,
2013-01-31 10:48:00,40.6,23.9,29.88,NW,315,8.1,8.1,51,0.00,CLR,,0.00,WeatherDisplay:10.37,2013-01-31 17:48:00,
2013-01-31 10:53:00,41.2,23.9,29.88,NW,315,8.1,8.1,50,0.00,CLR,,0.00,WeatherDisplay:10.37,2013-01-31 17:53:00,
2013-01-31 10:58:00,41.4,24.1,29.87,WNW,292,5.8,5.8,50,0.00,CLR,,0.00,WeatherDisplay:10.37,2013-01-31 17:58:00,
2013-01-31 11:03:00,41.7,23.9,29.87,WNW,292,5.8,5.8,49,0.00,CLR,,0.00,WeatherDisplay:10.37,2013-01-31 18:03:00,
2013-01-31 11:08:00,42.1,24.3,29.87,North,0,8.3,8.3,49,0.00,CLR,,0.00,WeatherDisplay:10.37,2013-01-31 18:08:00,
2013-01-31 11:13:00,42.4,24.6,29.87,West,270,6.9,6.9,49,0.00,CLR,,0.00,WeatherDisplay:10.37,2013-01-31 18:13:00,
2013-01-31 11:18:00,42.8,24.4,29.86,NNW,338,5.8,5.8,48,0.00,CLR,,0.00,WeatherDisplay:10.37,2013-01-31 18:18:00,
2013-01-31 11:23:00,43.2,24.3,29.86,NNW,338,9.2,9.2,47,0.00,CLR,,0.00,WeatherDisplay:10.37,2013-01-31 18:23:00,
2013-01-31 11:28:00,43.7,24.2,29.86,North,0,5.8,5.8,46,0.00,CLR,,0.00,WeatherDisplay:10.37,2013-01-31 18:28:00,
2013-01-31 11:33:00,44.2,23.7,29.86,NNW,338,10.4,10.4,44,0.00,CLR,,0.00,WeatherDisplay:10.37,2013-01-31 18:33:00,
2013-01-31 11:38:00,44.8,23.6,29.86,NNW,338,6.4,6.4,43,0.00,CLR,,0.00,WeatherDisplay:10.37,2013-01-31 18:38:00,
2013-01-31 11:43:00,44.8,23.6,29.86,WNW,292,5.8,5.8,43,0.00,CLR,,0.00,WeatherDisplay:10.37,2013-01-31 18:43:00,
2013-01-31 11:48:00,45.0,23.2,29.85,NNW,338,6.9,6.9,42,0.00,CLR,,0.00,WeatherDisplay:10.37,2013-01-31 18:48:00,
2013-01-31 11:53:00,45.0,23.2,29.85,West,270,5.8,5.8,42,0.00,CLR,,0.00,WeatherDisplay:10.37,2013-01-31 18:53:00,
2013-01-31 11:58:00,45.3,23.5,29.84,NNW,338,6.9,6.9,42,0.00,CLR,,0.00,WeatherDisplay:10.37,2013-01-31 18:58:00,
2013-01-31 12:03:00,45.7,23.9,29.84,NW,315,6.9,6.9,42,0.00,CLR,,0.00,WeatherDisplay:10.37,2013-01-31 19:03:00,
2013-01-31 12:08:00,46.0,23.6,29.84,NW,315,4.6,4.6,41,0.00,CLR,,0.00,WeatherDisplay:10.37,2013-01-31 19:08:00,
2013-01-31 12:13:00,46.4,23.9,29.84,NW,315,4.6,4.6,41,0.00,CLR,,0.00,WeatherDisplay:10.37,2013-01-31 19:13:00,
2013-01-31 12:18:00,46.6,22.9,29.83,NNW,338,3.3,3.3,39,0.00,CLR,,0.00,WeatherDisplay:10.37,2013-01-31 19:18:00,
2013-01-31 12:23:00,46.8,21.8,29.83,WSW,248,8.1,8.1,37,0.00,CLR,,0.00,WeatherDisplay:10.37,2013-01-31 19:23:00,
2013-01-31 12:28:00,46.9,22.0,29.83,NW,315,7.4,7.4,37,0.00,CLR,,0.00,WeatherDisplay:10.37,2013-01-31 19:28:00,
2013-01-31 12:33:00,47.3,22.3,29.83,NW,315,5.8,5.8,37,0.00,CLR,,0.00,WeatherDisplay:10.37,2013-01-31 19:33:00,
2013-01-31 12:38:00,47.3,21.7,29.83,NW,315,5.8,5.8,36,0.00,CLR,,0.00,WeatherDisplay:10.37,2013-01-31 19:38:00,
2013-01-31 12:43:00,47.5,20.5,29.82,NNW,338,4.6,4.6,34,0.00,CLR,,0.00,WeatherDisplay:10.37,2013-01-31 19:43:00,
2013-01-31 12:48:00,47.5,20.5,29.82,NNW,338,5.8,5.8,34,0.00,CLR,,0.00,WeatherDisplay:10.37,2013-01-31 19:48:00,
2013-01-31 12:53:00,47.8,20.8,29.82,WNW,292,5.8,5.8,34,0.00,CLR,,0.00,WeatherDisplay:10.37,2013-01-31 19:53:00,
2013-01-31 12:58:00,48.0,21.6,29.82,NW,315,4.6,4.6,35,0.00,CLR,,0.00,WeatherDisplay:10.37,2013-01-31 19:58:00,
2013-01-31 13:03:00,48.4,22.6,29.82,NW,315,4.6,4.6,36,0.00,CLR,,0.00,WeatherDisplay:10.37,2013-01-31 20:03:00,
2013-01-31 13:08:00,48.6,22.8,29.81,WSW,248,3.5,3.5,36,0.00,CLR,,0.00,WeatherDisplay:10.37,2013-01-31 20:08:00,
2013-01-31 13:13:00,48.6,22.8,29.81,NNW,338,3.5,3.5,36,0.00,CLR,,0.00,WeatherDisplay:10.37,2013-01-31 20:13:00,
2013-01-31 13:18:00,48.7,21.6,29.81,NW,315,6.9,6.9,34,0.00,CLR,,0.00,WeatherDisplay:10.37,2013-01-31 20:18:00,
2013-01-31 13:23:00,48.6,21.4,29.81,West,270,4.6,4.6,34,0.00,CLR,,0.00,WeatherDisplay:10.37,2013-01-31 20:23:00,
2013-01-31 13:28:00,48.9,21.7,29.81,WNW,292,4.6,4.6,34,0.00,CLR,,0.00,WeatherDisplay:10.37,2013-01-31 20:28:00,
2013-01-31 13:33:00,48.9,21.7,29.82,West,270,2.3,2.3,34,0.00,CLR,,0.00,WeatherDisplay:10.37,2013-01-31 20:33:00,
2013-01-31 13:38:00,48.7,22.9,29.82,WNW,292,3.5,4.5,36,0.00,CLR,,0.00,WeatherDisplay:10.37,2013-01-31 20:38:00,
2013-01-31 13:43:00,48.6,22.8,29.82,NW,315,1.6,1.6,36,0.00,CLR,,0.00,WeatherDisplay:10.37,2013-01-31 20:43:00,
2013-01-31 13:48:00,48.9,23.1,29.82,NW,315,3.5,3.5,36,0.00,CLR,,0.00,WeatherDisplay:10.37,2013-01-31 20:48:00,
2013-01-31 13:53:00,49.1,23.3,29.82,NNW,338,5.8,5.8,36,0.00,CLR,,0.00,WeatherDisplay:10.37,2013-01-31 20:53:00,
2013-01-31 13:58:00,49.3,23.4,29.82,WNW,292,2.4,2.4,36,0.00,CLR,,0.00,WeatherDisplay:10.37,2013-01-31 20:58:00,
2013-01-31 14:03:00,49.1,23.3,29.82,ENE,68,4.6,4.6,36,0.00,CLR,,0.00,WeatherDisplay:10.37,2013-01-31 21:03:00,
2013-01-31 14:08:00,49.5,23.6,29.83,NNW,338,4.6,4.6,36,0.00,CLR,,0.00,WeatherDisplay:10.37,2013-01-31 21:08:00,
2013-01-31 14:13:00,49.3,22.1,29.83,NNW,338,4.6,4.6,34,0.00,CLR,,0.00,WeatherDisplay:10.37,2013-01-31 21:13:00,
2013-01-31 14:18:00,49.3,22.1,29.83,NNE,22,4.6,4.6,34,0.00,CLR,,0.00,WeatherDisplay:10.37,2013-01-31 21:18:00,
2013-01-31 14:23:00,49.5,22.2,29.83,WSW,248,4.7,4.7,34,0.00,CLR,,0.00,WeatherDisplay:10.37,2013-01-31 21:23:00,
2013-01-31 14:28:00,49.6,22.4,29.83,WSW,248,2.3,2.3,34,0.00,CLR,,0.00,WeatherDisplay:10.37,2013-01-31 21:28:00,
2013-01-31 14:33:00,49.6,21.7,29.83,SSW,202,3.5,3.5,33,0.00,CLR,,0.00,WeatherDisplay:10.37,2013-01-31 21:33:00,
2013-01-31 14:38:00,49.8,21.8,29.84,WNW,292,2.4,2.4,33,0.00,CLR,,0.00,WeatherDisplay:10.37,2013-01-31 21:38:00,
2013-01-31 14:43:00,50.0,22.0,29.84,NW,315,3.5,3.5,33,0.00,CLR,,0.00,WeatherDisplay:10.37,2013-01-31 21:43:00,
2013-01-31 14:48:00,50.2,22.1,29.84,WSW,248,3.6,3.6,33,0.00,CLR,,0.00,WeatherDisplay:10.37,2013-01-31 21:48:00,
2013-01-31 14:53:00,50.4,21.6,29.84,West,270,2.3,2.3,32,0.00,CLR,,0.00,WeatherDisplay:10.37,2013-01-31 21:53:00,
2013-01-31 14:58:00,50.7,21.9,29.84,WNW,292,4.6,4.6,32,0.00,CLR,,0.00,WeatherDisplay:10.37,2013-01-31 21:58:00,
2013-01-31 15:03:00,51.1,21.5,29.84,NW,315,4.6,4.6,31,0.00,CLR,,0.00,WeatherDisplay:10.37,2013-01-31 22:03:00,
2013-01-31 15:08:00,51.3,21.6,29.84,WSW,248,3.5,3.5,31,0.00,CLR,,0.00,WeatherDisplay:10.37,2013-01-31 22:08:00,
2013-01-31 15:13:00,51.3,21.6,29.84,WSW,248,3.3,3.3,31,0.00,CLR,,0.00,WeatherDisplay:10.37,2013-01-31 22:13:00,
2013-01-31 15:18:00,51.4,21.0,29.84,NW,315,3.8,3.8,30,0.00,CLR,,0.00,WeatherDisplay:10.37,2013-01-31 22:18:00,
2013-01-31 15:23:00,51.4,21.0,29.84,West,270,2.3,2.3,30,0.00,CLR,,0.00,WeatherDisplay:10.37,2013-01-31 22:23:00,
2013-01-31 15:28:00,51.4,20.2,29.84,West,270,2.3,2.3,29,0.00,CLR,,0.00,WeatherDisplay:10.37,2013-01-31 22:28:00,
2013-01-31 15:33:00,51.6,20.4,29.84,West,270,4.0,4.0,29,0.00,CLR,,0.00,WeatherDisplay:10.37,2013-01-31 22:33:00,
2013-01-31 15:38:00,51.6,20.4,29.84,WSW,248,4.6,4.6,29,0.00,CLR,,0.00,WeatherDisplay:10.37,2013-01-31 22:38:00,
2013-01-31 15:43:00,51.4,21.0,29.84,WNW,292,1.2,1.2,30,0.00,CLR,,0.00,WeatherDisplay:10.37,2013-01-31 22:43:00,
2013-01-31 15:48:00,51.4,20.2,29.84,WNW,292,5.6,5.6,29,0.00,CLR,,0.00,WeatherDisplay:10.37,2013-01-31 22:48:00,
2013-01-31 15:53:00,51.3,20.8,29.84,NNW,338,4.6,4.6,30,0.00,CLR,,0.00,WeatherDisplay:10.37,2013-01-31 22:53:00,
2013-01-31 15:58:00,51.1,19.9,29.84,WNW,292,5.8,5.8,29,0.00,CLR,,0.00,WeatherDisplay:10.37,2013-01-31 22:58:00,
2013-01-31 16:03:00,50.7,20.4,29.84,WNW,292,2.3,2.3,30,0.00,CLR,,0.00,WeatherDisplay:10.37,2013-01-31 23:03:00,
2013-01-31 16:08:00,50.7,21.1,29.84,NW,315,3.5,3.5,31,0.00,CLR,,0.00,WeatherDisplay:10.37,2013-01-31 23:08:00,
2013-01-31 16:13:00,50.9,21.3,29.84,WNW,292,1.2,1.4,31,0.00,CLR,,0.00,WeatherDisplay:10.37,2013-01-31 23:13:00,
2013-01-31 16:18:00,50.9,20.5,29.84,NE,45,2.3,2.3,30,0.00,CLR,,0.00,WeatherDisplay:10.37,2013-01-31 23:18:00,
2013-01-31 16:23:00,50.7,20.4,29.84,WNW,292,2.6,2.6,30,0.00,CLR,,0.00,WeatherDisplay:10.37,2013-01-31 23:23:00,
2013-01-31 16:28:00,50.7,19.6,29.84,NNW,338,3.5,3.5,29,0.00,CLR,,0.00,WeatherDisplay:10.37,2013-01-31 23:28:00,
2013-01-31 16:33:00,50.4,19.3,29.84,NW,315,2.3,2.6,29,0.00,CLR,,0.00,WeatherDisplay:10.37,2013-01-31 23:33:00,
2013-01-31 16:38:00,50.2,19.1,29.83,NNW,338,1.4,1.4,29,0.00,CLR,,0.00,WeatherDisplay:10.37,2013-01-31 23:38:00,
2013-01-31 16:43:00,50.0,19.7,29.84,NW,315,1.2,1.2,30,0.00,CLR,,0.00,WeatherDisplay:10.37,2013-01-31 23:43:00,
2013-01-31 16:48:00,49.8,19.6,29.84,WNW,292,2.3,2.3,30,0.00,CLR,,0.00,WeatherDisplay:10.37,2013-01-31 23:48:00,
2013-01-31 16:53:00,49.5,19.3,29.84,NW,315,3.6,3.6,30,0.00,CLR,,0.00,WeatherDisplay:10.37,2013-01-31 23:53:00,
2013-01-31 16:58:00,49.1,19.7,29.84,North,0,4.6,4.6,31,0.00,CLR,,0.00,WeatherDisplay:10.37,2013-01-31 23:58:00,
2013-01-31 17:03:00,48.9,19.6,29.84,West,270,1.2,2.4,31,0.00,CLR,,0.00,WeatherDisplay:10.37,2013-02-01 00:03:00,
2013-01-31 17:08:00,48.7,20.2,29.84,NNW,338,2.6,2.6,32,0.00,CLR,,0.00,WeatherDisplay:10.37,2013-02-01 00:08:00,
2013-01-31 17:13:00,48.6,20.0,29.84,NW,315,1.6,1.6,32,0.00,CLR,,0.00,WeatherDisplay:10.37,2013-02-01 00:13:00,
2013-01-31 17:18:00,48.2,19.7,29.84,NW,315,2.6,2.6,32,0.00,CLR,,0.00,WeatherDisplay:10.37,2013-02-01 00:18:00,
2013-01-31 17:23:00,47.8,19.4,29.84,North,0,2.3,2.3,32,0.00,CLR,,0.00,WeatherDisplay:10.37,2013-02-01 00:23:00,
2013-01-31 17:28:00,47.5,19.8,29.84,NW,315,2.6,2.6,33,0.00,CLR,,0.00,WeatherDisplay:10.37,2013-02-01 00:28:00,
2013-01-31 17:33:00,47.3,20.3,29.84,North,0,3.5,3.5,34,0.00,CLR,,0.00,WeatherDisplay:10.37,2013-02-01 00:33:00,
2013-01-31 17:38:00,46.9,20.0,29.84,WNW,292,1.8,1.8,34,0.00,CLR,,0.00,WeatherDisplay:10.37,2013-02-01 00:38:00,
2013-01-31 17:43:00,46.6,19.7,29.84,WNW,292,2.3,2.3,34,0.00,CLR,,0.00,WeatherDisplay:10.37,2013-02-01 00:43:00,
2013-01-31 17:48:00,46.2,20.0,29.84,NNE,22,2.3,2.4,35,0.00,CLR,,0.00,WeatherDisplay:10.37,2013-02-01 00:48:00,
2013-01-31 17:53:00,45.9,20.4,29.84,NNW,338,2.2,2.2,36,0.00,CLR,,0.00,WeatherDisplay:10.37,2013-02-01 00:53:00,
2013-01-31 17:58:00,45.7,20.2,29.84,NW,315,1.2,1.2,36,0.00,CLR,,0.00,WeatherDisplay:10.37,2013-02-01 00:58:00,
2013-01-31 18:03:00,45.5,20.1,29.85,NW,315,2.3,0.0,36,0.00,CLR,,0.00,WeatherDisplay:10.37,2013-02-01 01:03:00,
2013-01-31 18:08:00,45.0,20.2,29.85,NNE,22,2.3,2.3,37,0.00,CLR,,0.00,WeatherDisplay:10.37,2013-02-01 01:08:00,
2013-01-31 18:13:00,44.6,20.5,29.85,North,0,2.3,2.3,38,0.00,CLR,,0.00,WeatherDisplay:10.37,2013-02-01 01:13:00,
2013-01-31 18:18:00,44.2,20.2,29.85,NNE,22,2.3,2.3,38,0.00,CLR,,0.00,WeatherDisplay:10.37,2013-02-01 01:18:00,
2013-01-31 18:23:00,43.9,20.5,29.85,NNW,338,5.2,5.2,39,0.00,CLR,,0.00,WeatherDisplay:10.37,2013-02-01 01:23:00,
2013-01-31 18:28:00,43.5,20.8,29.85,NE,45,1.2,1.2,40,0.00,CLR,,0.00,WeatherDisplay:10.37,2013-02-01 01:28:00,
2013-01-31 18:33:00,43.3,20.6,29.85,NNW,338,2.3,2.3,40,0.00,CLR,,0.00,WeatherDisplay:10.37,2013-02-01 01:33:00,
2013-01-31 18:38:00,43.2,20.4,29.85,NW,315,3.5,3.5,40,0.00,CLR,,0.00,WeatherDisplay:10.37,2013-02-01 01:38:00,
2013-01-31 18:43:00,42.8,20.7,29.85,NW,315,2.4,2.4,41,0.00,CLR,,0.00,WeatherDisplay:10.37,2013-02-01 01:43:00,
2013-01-31 18:48:00,42.8,20.7,29.84,NW,315,5.4,5.4,41,0.00,CLR,,0.00,WeatherDisplay:10.37,2013-02-01 01:48:00,
2013-01-31 18:53:00,42.8,20.7,29.85,NNW,338,2.6,2.6,41,0.00,CLR,,0.00,WeatherDisplay:10.37,2013-02-01 01:53:00,
2013-01-31 18:58:00,42.6,20.5,29.85,NNW,338,2.3,2.3,41,0.00,CLR,,0.00,WeatherDisplay:10.37,2013-02-01 01:58:00,
2013-01-31 19:03:00,42.4,20.4,29.84,NW,315,3.5,3.5,41,0.00,CLR,,0.00,WeatherDisplay:10.37,2013-02-01 02:03:00,
2013-01-31 19:08:00,42.4,20.4,29.84,North,0,4.6,5.2,41,0.00,CLR,,0.00,WeatherDisplay:10.37,2013-02-01 02:08:00,
2013-01-31 19:13:00,42.4,20.4,29.84,NNE,22,3.5,3.5,41,0.00,CLR,,0.00,WeatherDisplay:10.37,2013-02-01 02:13:00,
2013-01-31 19:18:00,42.3,20.2,29.84,NNW,338,2.3,2.3,41,0.00,CLR,,0.00,WeatherDisplay:10.37,2013-02-01 02:18:00,
2013-01-31 19:23:00,42.1,20.0,29.84,West,270,2.3,2.3,41,0.00,CLR,,0.00,WeatherDisplay:10.37,2013-02-01 02:23:00,
2013-01-31 19:28:00,41.9,19.9,29.84,NW,315,2.3,2.3,41,0.00,CLR,,0.00,WeatherDisplay:10.37,2013-02-01 02:28:00,
2013-01-31 19:33:00,41.7,20.3,29.84,North,0,2.3,3.8,42,0.00,CLR,,0.00,WeatherDisplay:10.37,2013-02-01 02:33:00,
2013-01-31 19:38:00,41.7,20.3,29.84,ESE,112,4.6,4.6,42,0.00,CLR,,0.00,WeatherDisplay:10.37,2013-02-01 02:38:00,
2013-01-31 19:43:00,41.7,20.3,29.84,NNW,338,2.4,2.4,42,0.00,CLR,,0.00,WeatherDisplay:10.37,2013-02-01 02:43:00,
2013-01-31 19:48:00,41.7,20.3,29.84,NNE,22,1.2,1.2,42,0.00,CLR,,0.00,WeatherDisplay:10.37,2013-02-01 02:48:00,
2013-01-31 19:53:00,41.4,20.0,29.84,NNE,22,1.2,1.2,42,0.00,CLR,,0.00,WeatherDisplay:10.37,2013-02-01 02:53:00,
2013-01-31 19:58:00,41.0,19.6,29.84,NE,45,1.2,1.2,42,0.00,CLR,,0.00,WeatherDisplay:10.37,2013-02-01 02:58:00,
2013-01-31 20:03:00,40.6,19.3,29.84,NNW,338,2.3,2.3,42,0.00,CLR,,0.00,WeatherDisplay:10.37,2013-02-01 03:03:00,
2013-01-31 20:08:00,40.3,18.4,29.84,North,0,1.8,1.8,41,0.00,CLR,,0.00,WeatherDisplay:10.37,2013-02-01 03:08:00,
2013-01-31 20:13:00,39.9,18.7,29.84,NNW,338,1.2,1.2,42,0.00,CLR,,0.00,WeatherDisplay:10.37,2013-02-01 03:13:00,
2013-01-31 20:18:00,39.9,18.7,29.84,North,0,1.2,1.2,42,0.00,CLR,,0.00,WeatherDisplay:10.37,2013-02-01 03:18:00,
2013-01-31 20:23:00,39.6,18.9,29.84,North,0,1.2,1.2,43,0.00,CLR,,0.00,WeatherDisplay:10.37,2013-02-01 03:23:00,
2013-01-31 20:28:00,39.6,19.4,29.84,NW,315,3.5,3.5,44,0.00,CLR,,0.00,WeatherDisplay:10.37,2013-02-01 03:28:00,
2013-01-31 20:33:00,39.6,19.9,29.84,NNW,338,2.4,2.4,45,0.00,CLR,,0.00,WeatherDisplay:10.37,2013-02-01 03:33:00,
2013-01-31 20:38:00,39.7,20.1,29.84,NNE,22,2.3,2.3,45,0.00,CLR,,0.00,WeatherDisplay:10.37,2013-02-01 03:38:00,
2013-01-31 20:43:00,39.6,19.9,29.84,NNW,338,2.3,2.3,45,0.00,CLR,,0.00,WeatherDisplay:10.37,2013-02-01 03:43:00,
2013-01-31 20:48:00,39.2,19.6,29.84,North,0,1.2,1.2,45,0.00,CLR,,0.00,WeatherDisplay:10.37,2013-02-01 03:48:00,
2013-01-31 20:54:00,38.8,18.8,29.84,North,0,2.3,2.3,44,0.00,CLR,,0.00,WeatherDisplay:10.37,2013-02-01 03:54:00,
2013-01-31 20:59:00,38.7,18.6,29.84,NNW,338,1.2,1.2,44,0.00,CLR,,0.00,WeatherDisplay:10.37,2013-02-01 03:59:00,
2013-01-31 21:04:00,38.5,18.4,29.84,NNW,338,1.2,1.2,44,0.00,CLR,,0.00,WeatherDisplay:10.37,2013-02-01 04:04:00,
2013-01-31 21:09:00,38.5,17.9,29.84,NNW,338,0.0,0.5,43,0.00,CLR,,0.00,WeatherDisplay:10.37,2013-02-01 04:09:00,
2013-01-31 21:14:00,37.9,17.4,29.84,North,0,1.2,0.0,43,0.00,CLR,,0.00,WeatherDisplay:10.37,2013-02-01 04:14:00,
2013-01-31 21:19:00,37.6,17.1,29.84,WNW,292,1.2,1.2,43,0.00,CLR,,0.00,WeatherDisplay:10.37,2013-02-01 04:19:00,
2013-01-31 21:24:00,37.0,16.6,29.84,WNW,292,0.0,0.0,43,0.00,CLR,,0.00,WeatherDisplay:10.37,2013-02-01 04:24:00,
2013-01-31 21:29:00,36.7,16.3,29.84,WNW,292,0.0,0.0,43,0.00,CLR,,0.00,WeatherDisplay:10.37,2013-02-01 04:29:00,
2013-01-31 21:34:00,36.1,15.8,29.84,North,0,0.0,0.0,43,0.00,CLR,,0.00,WeatherDisplay:10.37,2013-02-01 04:34:00,
2013-01-31 21:39:00,35.6,14.7,29.85,North,0,0.0,0.0,42,0.00,CLR,,0.00,WeatherDisplay:10.37,2013-02-01 04:39:00,
2013-01-31 21:44:00,35.2,14.4,29.85,NW,315,0.0,0.0,42,0.00,CLR,,0.00,WeatherDisplay:10.37,2013-02-01 04:44:00,
2013-01-31 21:49:00,34.9,14.6,29.85,WNW,292,0.0,0.0,43,0.00,CLR,,0.00,WeatherDisplay:10.37,2013-02-01 04:49:00,
2013-01-31 21:54:00,34.5,14.3,29.86,WNW,292,0.0,0.0,43,0.00,CLR,,0.00,WeatherDisplay:10.37,2013-02-01 04:54:00,
2013-01-31 21:59:00,34.2,14.0,29.86,West,270,0.2,0.2,43,0.00,CLR,,0.00,WeatherDisplay:10.37,2013-02-01 04:59:00,
2013-01-31 22:00:00,34.2,14.5,29.86,West,270,0.0,0.0,44,0.00,CLR,,0.00,WeatherDisplay:10.37,2013-02-01 05:00:00,
2013-01-31 22:01:00,34.2,14.5,29.86,West,270,0.0,0.0,44,0.00,CLR,,0.00,WeatherDisplay:10.37,2013-02-01 05:01:00,
2013-01-31 22:03:00,33.8,14.2,29.86,West,270,0.0,0.0,44,0.00,CLR,,0.00,WeatherDisplay:10.37,2013-02-01 05:03:00,
2013-01-31 22:08:00,33.6,14.5,29.86,WNW,292,0.0,0.0,45,0.00,CLR,,0.00,WeatherDisplay:10.37,2013-02-01 05:08:00,
2013-01-31 22:13:00,33.4,14.3,29.86,WNW,292,0.0,0.0,45,0.00,CLR,,0.00,WeatherDisplay:10.37,2013-02-01 05:13:00,
2013-01-31 22:18:00,33.3,14.7,29.86,WNW,292,0.0,0.0,46,0.00,CLR,,0.00,WeatherDisplay:10.37,2013-02-01 05:18:00,
2013-01-31 22:23:00,33.1,14.5,29.86,WNW,292,0.0,0.0,46,0.00,CLR,,0.00,WeatherDisplay:10.37,2013-02-01 05:23:00,
2013-01-31 22:28:00,32.7,14.7,29.87,NNW,338,0.0,0.0,47,0.00,CLR,,0.00,WeatherDisplay:10.37,2013-02-01 05:28:00,
2013-01-31 22:33:00,32.5,15.0,29.87,NNW,338,0.0,0.0,48,0.00,CLR,,0.00,WeatherDisplay:10.37,2013-02-01 05:33:00,